Search for airport 
image banner adimage banner adimage banner ad
image banner ad

5PA0 - Blomster Field Farm

Located in Carmichaels, United States

ICAO - 5PA0, IATA -

Data provided by Airmate  

General information

Coordinates: N39°52'22" W79°57'19"
Elevation is 1050 feet MSL.
 
View others Airports in Pennsylvania

Operational data

Special qualification required
Current time UTC:
Current local time:
METAR: KMGW 182253Z VRB03KT 10SM CLR 26/06 A3028 RMK AO2 SLP250 T02610061
TAF: KMGW 181726Z 1818/1918 05006KT P6SM SCT060 SCT250 FM182300 00000KT P6SM SCT250 FM191500 16004KT P6SM SCT040
View NOTAMs / SUP AIP / TFR affecting this airport [VIEW]
Communications frequencies: [VIEW]

Runways:

RWY identifierQFULength (ft)Width (ft)SurfaceLDA (ft)
05200075GRASS
23200075GRASS

Airport contact information

Address: Carmichaels United States

Satellite view of 5PA0